sensor_id;sensor_type;location;lat;lon;timestamp;pressure;altitude;pressure_sealevel;temperature;humidity
22743;BME280;11538;48.884;8.696;2023-04-26T00:01:59;98839.41;;;7.11;100.00
22743;BME280;11538;48.884;8.696;2023-04-26T00:04:26;98843.47;;;7.09;100.00
22743;BME280;11538;48.884;8.696;2023-04-26T00:06:55;98847.50;;;7.11;100.00
22743;BME280;11538;48.884;8.696;2023-04-26T00:09:22;98845.31;;;7.19;100.00
22743;BME280;11538;48.884;8.696;2023-04-26T00:11:49;98846.94;;;7.20;100.00
22743;BME280;11538;48.884;8.696;2023-04-26T00:14:16;98837.78;;;7.15;100.00
22743;BME280;11538;48.884;8.696;2023-04-26T00:16:43;98848.84;;;7.14;100.00
22743;BME280;11538;48.884;8.696;2023-04-26T00:19:10;98846.44;;;7.12;100.00
22743;BME280;11538;48.884;8.696;2023-04-26T00:21:38;98847.78;;;7.05;100.00
22743;BME280;11538;48.884;8.696;2023-04-26T00:24:07;98847.28;;;6.97;100.00
22743;BME280;11538;48.884;8.696;2023-04-26T00:26:34;98848.91;;;6.93;100.00
22743;BME280;11538;48.884;8.696;2023-04-26T00:29:03;98843.50;;;6.93;100.00
22743;BME280;11538;48.884;8.696;2023-04-26T00:31:30;98840.25;;;6.96;100.00
22743;BME280;11538;48.884;8.696;2023-04-26T00:33:57;98848.63;;;7.00;100.00
22743;BME280;11538;48.884;8.696;2023-04-26T00:36:24;98840.28;;;6.91;100.00
22743;BME280;11538;48.884;8.696;2023-04-26T00:38:51;98840.84;;;6.83;100.00
22743;BME280;11538;48.884;8.696;2023-04-26T00:41:19;98831.97;;;6.82;100.00
22743;BME280;11538;48.884;8.696;2023-04-26T00:43:46;98833.56;;;6.83;100.00
22743;BME280;11538;48.884;8.696;2023-04-26T00:46:13;98823.06;;;6.71;100.00
22743;BME280;11538;48.884;8.696;2023-04-26T00:48:40;98832.25;;;6.70;100.00
22743;BME280;11538;48.884;8.696;2023-04-26T00:51:07;98840.59;;;6.58;100.00
22743;BME280;11538;48.884;8.696;2023-04-26T00:53:35;98840.38;;;6.50;100.00
22743;BME280;11538;48.884;8.696;2023-04-26T00:56:02;98839.81;;;6.58;100.00
22743;BME280;11538;48.884;8.696;2023-04-26T00:58:32;98849.22;;;6.55;100.00
22743;BME280;11538;48.884;8.696;2023-04-26T01:00:59;98841.97;;;6.51;100.00
22743;BME280;11538;48.884;8.696;2023-04-26T01:03:26;98846.53;;;6.55;100.00
22743;BME280;11538;48.884;8.696;2023-04-26T01:05:54;98849.78;;;6.52;100.00
22743;BME280;11538;48.884;8.696;2023-04-26T01:08:22;98849.22;;;6.55;100.00
22743;BME280;11538;48.884;8.696;2023-04-26T01:10:49;98842.50;;;6.58;100.00
22743;BME280;11538;48.884;8.696;2023-04-26T01:13:16;98843.31;;;6.48;100.00
22743;BME280;11538;48.884;8.696;2023-04-26T01:15:48;98842.53;;;6.42;100.00
22743;BME280;11538;48.884;8.696;2023-04-26T01:18:18;98837.94;;;6.43;100.00
22743;BME280;11538;48.884;8.696;2023-04-26T01:20:44;98845.75;;;6.44;100.00
22743;BME280;11538;48.884;8.696;2023-04-26T01:23:12;98846.56;;;6.40;100.00
22743;BME280;11538;48.884;8.696;2023-04-26T01:25:39;98848.72;;;6.33;100.00
22743;BME280;11538;48.884;8.696;2023-04-26T01:28:06;98849.78;;;6.21;100.00
22743;BME280;11538;48.884;8.696;2023-04-26T01:30:33;98853.03;;;6.28;100.00
22743;BME280;11538;48.884;8.696;2023-04-26T01:33:00;98855.72;;;6.34;100.00
22743;BME280;11538;48.884;8.696;2023-04-26T01:35:27;98850.63;;;6.37;100.00
22743;BME280;11538;48.884;8.696;2023-04-26T01:37:54;98852.78;;;6.35;100.00
22743;BME280;11538;48.884;8.696;2023-04-26T01:40:21;98847.09;;;6.37;100.00
22743;BME280;11538;48.884;8.696;2023-04-26T01:42:47;98848.19;;;6.25;100.00
22743;BME280;11538;48.884;8.696;2023-04-26T01:45:14;98841.72;;;6.21;100.00
22743;BME280;11538;48.884;8.696;2023-04-26T01:47:43;98842.53;;;6.27;100.00
22743;BME280;11538;48.884;8.696;2023-04-26T01:50:10;98833.91;;;6.20;100.00
22743;BME280;11538;48.884;8.696;2023-04-26T01:52:37;98835.00;;;6.24;100.00
22743;BME280;11538;48.884;8.696;2023-04-26T01:55:04;98832.56;;;6.33;100.00
22743;BME280;11538;48.884;8.696;2023-04-26T01:57:31;98837.41;;;6.36;100.00
22743;BME280;11538;48.884;8.696;2023-04-26T01:59:58;98831.22;;;6.30;100.00
22743;BME280;11538;48.884;8.696;2023-04-26T02:02:27;98840.91;;;6.21;100.00
22743;BME280;11538;48.884;8.696;2023-04-26T02:04:54;98834.72;;;6.20;100.00
22743;BME280;11538;48.884;8.696;2023-04-26T02:07:21;98836.88;;;6.13;100.00
22743;BME280;11538;48.884;8.696;2023-04-26T02:09:48;98846.56;;;6.19;100.00
22743;BME280;11538;48.884;8.696;2023-04-26T02:12:15;98843.06;;;6.24;100.00
22743;BME280;11538;48.884;8.696;2023-04-26T02:14:42;98843.63;;;6.26;100.00
22743;BME280;11538;48.884;8.696;2023-04-26T02:17:09;98850.34;;;6.28;100.00
22743;BME280;11538;48.884;8.696;2023-04-26T02:19:36;98846.03;;;6.27;100.00
22743;BME280;11538;48.884;8.696;2023-04-26T02:22:04;98847.09;;;6.26;100.00
22743;BME280;11538;48.884;8.696;2023-04-26T02:24:31;98846.56;;;6.24;100.00
22743;BME280;11538;48.884;8.696;2023-04-26T02:26:59;98851.16;;;6.29;100.00
22743;BME280;11538;48.884;8.696;2023-04-26T02:29:30;98843.88;;;6.29;100.00
22743;BME280;11538;48.884;8.696;2023-04-26T02:32:11;98840.63;;;6.27;100.00
22743;BME280;11538;48.884;8.696;2023-04-26T02:34:38;98839.31;;;6.25;100.00
22743;BME280;11538;48.884;8.696;2023-04-26T02:37:04;98842.53;;;6.11;100.00
22743;BME280;11538;48.884;8.696;2023-04-26T02:39:32;98837.41;;;6.05;100.00
22743;BME280;11538;48.884;8.696;2023-04-26T02:41:58;98835.00;;;6.03;100.00
22743;BME280;11538;48.884;8.696;2023-04-26T02:44:29;98840.34;;;5.98;100.00
22743;BME280;11538;48.884;8.696;2023-04-26T02:47:00;98840.88;;;6.00;100.00
22743;BME280;11538;48.884;8.696;2023-04-26T02:49:27;98840.63;;;6.02;100.00
22743;BME280;11538;48.884;8.696;2023-04-26T02:51:53;98833.91;;;6.04;100.00
22743;BME280;11538;48.884;8.696;2023-04-26T02:54:20;98846.03;;;6.07;100.00
22743;BME280;11538;48.884;8.696;2023-04-26T02:56:47;98845.47;;;6.05;100.00
22743;BME280;11538;48.884;8.696;2023-04-26T02:59:14;98850.84;;;5.99;100.00
22743;BME280;11538;48.884;8.696;2023-04-26T03:01:41;98851.66;;;6.00;100.00
22743;BME280;11538;48.884;8.696;2023-04-26T03:04:12;98852.44;;;5.90;100.00
22743;BME280;11538;48.884;8.696;2023-04-26T03:06:39;98846.50;;;5.83;100.00
22743;BME280;11538;48.884;8.696;2023-04-26T03:09:06;98843.25;;;5.70;100.00
22743;BME280;11538;48.884;8.696;2023-04-26T03:11:33;98843.25;;;5.70;100.00
22743;BME280;11538;48.884;8.696;2023-04-26T03:14:01;98837.84;;;5.65;100.00
22743;BME280;11538;48.884;8.696;2023-04-26T03:16:27;98850.50;;;5.65;100.00
22743;BME280;11538;48.884;8.696;2023-04-26T03:18:54;98840.53;;;5.65;100.00
22743;BME280;11538;48.884;8.696;2023-04-26T03:21:21;98838.41;;;5.73;100.00
22743;BME280;11538;48.884;8.696;2023-04-26T03:23:48;98841.63;;;5.69;100.00
22743;BME280;11538;48.884;8.696;2023-04-26T03:26:15;98844.88;;;5.71;100.00
22743;BME280;11538;48.884;8.696;2023-04-26T03:28:42;98841.34;;;5.66;100.00
22743;BME280;11538;48.884;8.696;2023-04-26T03:31:09;98839.72;;;5.60;100.00
22743;BME280;11538;48.884;8.696;2023-04-26T03:33:36;98839.97;;;5.53;100.00
22743;BME280;11538;48.884;8.696;2023-04-26T03:36:03;98841.84;;;5.57;100.00
22743;BME280;11538;48.884;8.696;2023-04-26T03:38:30;98837.00;;;5.49;100.00
22743;BME280;11538;48.884;8.696;2023-04-26T03:40:57;98837.03;;;5.60;100.00
22743;BME280;11538;48.884;8.696;2023-04-26T03:43:24;98836.78;;;5.66;100.00
22743;BME280;11538;48.884;8.696;2023-04-26T03:45:51;98838.63;;;5.55;100.00
22743;BME280;11538;48.884;8.696;2023-04-26T03:48:18;98846.16;;;5.53;100.00
22743;BME280;11538;48.884;8.696;2023-04-26T03:50:47;98850.75;;;5.53;100.00
22743;BME280;11538;48.884;8.696;2023-04-26T03:53:18;98848.84;;;5.53;100.00
22743;BME280;11538;48.884;8.696;2023-04-26T03:55:48;98849.34;;;5.45;100.00
22743;BME280;11538;48.884;8.696;2023-04-26T03:58:14;98840.75;;;5.43;100.00
22743;BME280;11538;48.884;8.696;2023-04-26T04:00:41;98842.66;;;5.48;100.00
22743;BME280;11538;48.884;8.696;2023-04-26T04:03:09;98842.38;;;5.49;100.00
22743;BME280;11538;48.884;8.696;2023-04-26T04:05:39;98846.94;;;5.44;100.00
22743;BME280;11538;48.884;8.696;2023-04-26T04:08:06;98839.41;;;5.40;100.00
22743;BME280;11538;48.884;8.696;2023-04-26T04:10:33;98831.34;;;5.40;100.00
22743;BME280;11538;48.884;8.696;2023-04-26T04:12:59;98833.50;;;5.44;100.00
22743;BME280;11538;48.884;8.696;2023-04-26T04:15:26;98835.88;;;5.35;100.00
22743;BME280;11538;48.884;8.696;2023-04-26T04:17:53;98834.78;;;5.31;100.00
22743;BME280;11538;48.884;8.696;2023-04-26T04:20:20;98837.00;;;5.49;100.00
22743;BME280;11538;48.884;8.696;2023-04-26T04:22:48;98841.31;;;5.50;100.00
22743;BME280;11538;48.884;8.696;2023-04-26T04:25:15;98837.81;;;5.45;100.00
22743;BME280;11538;48.884;8.696;2023-04-26T04:27:42;98842.38;;;5.49;100.00
22743;BME280;11538;48.884;8.696;2023-04-26T04:30:11;98843.16;;;5.39;100.00
22743;BME280;11538;48.884;8.696;2023-04-26T04:32:38;98848.53;;;5.39;100.00
22743;BME280;11538;48.884;8.696;2023-04-26T04:35:06;98844.78;;;5.40;100.00
22743;BME280;11538;48.884;8.696;2023-04-26T04:37:33;98847.97;;;5.32;100.00
22743;BME280;11538;48.884;8.696;2023-04-26T04:40:00;98851.75;;;5.31;100.00
22743;BME280;11538;48.884;8.696;2023-04-26T04:42:27;98857.66;;;5.33;100.00
22743;BME280;11538;48.884;8.696;2023-04-26T04:44:54;98853.88;;;5.29;100.00
22743;BME280;11538;48.884;8.696;2023-04-26T04:47:22;98857.94;;;5.37;100.00
22743;BME280;11538;48.884;8.696;2023-04-26T04:49:49;98857.16;;;5.36;100.00
22743;BME280;11538;48.884;8.696;2023-04-26T04:52:18;98856.13;;;5.53;100.00
22743;BME280;11538;48.884;8.696;2023-04-26T04:54:47;98860.69;;;5.57;100.00
22743;BME280;11538;48.884;8.696;2023-04-26T04:57:14;98860.16;;;5.61;100.00
22743;BME280;11538;48.884;8.696;2023-04-26T04:59:42;98863.13;;;5.59;100.00
22743;BME280;11538;48.884;8.696;2023-04-26T05:02:09;98869.56;;;5.53;100.00
22743;BME280;11538;48.884;8.696;2023-04-26T05:04:36;98874.13;;;5.47;100.00
22743;BME280;11538;48.884;8.696;2023-04-26T05:07:04;98878.66;;;5.36;100.00
22743;BME280;11538;48.884;8.696;2023-04-26T05:09:32;98874.47;;;5.66;100.00
22743;BME280;11538;48.884;8.696;2023-04-26T05:11:59;98878.25;;;5.76;100.00
22743;BME280;11538;48.884;8.696;2023-04-26T05:14:30;98876.66;;;5.90;100.00
22743;BME280;11538;48.884;8.696;2023-04-26T05:16:56;98880.13;;;5.80;100.00
22743;BME280;11538;48.884;8.696;2023-04-26T05:19:23;98884.94;;;5.68;100.00
22743;BME280;11538;48.884;8.696;2023-04-26T05:21:51;98888.47;;;5.68;100.00
22743;BME280;11538;48.884;8.696;2023-04-26T05:24:18;98886.84;;;5.67;100.00
22743;BME280;11538;48.884;8.696;2023-04-26T05:26:45;98888.47;;;5.79;100.00
22743;BME280;11538;48.884;8.696;2023-04-26T05:29:12;98896.00;;;5.71;100.00
22743;BME280;11538;48.884;8.696;2023-04-26T05:31:38;98896.00;;;5.77;100.00
22743;BME280;11538;48.884;8.696;2023-04-26T05:34:05;98896.56;;;5.84;100.00
22743;BME280;11538;48.884;8.696;2023-04-26T05:36:32;98896.56;;;5.79;100.00
22743;BME280;11538;48.884;8.696;2023-04-26T05:38:59;98895.50;;;5.85;100.00
22743;BME280;11538;48.884;8.696;2023-04-26T05:41:26;98893.88;;;5.89;100.00
22743;BME280;11538;48.884;8.696;2023-04-26T05:43:55;98899.53;;;5.93;100.00
22743;BME280;11538;48.884;8.696;2023-04-26T05:46:22;98893.13;;;5.99;100.00
22743;BME280;11538;48.884;8.696;2023-04-26T05:48:49;98896.41;;;6.11;100.00
22743;BME280;11538;48.884;8.696;2023-04-26T05:51:17;98896.13;;;6.18;100.00
22743;BME280;11538;48.884;8.696;2023-04-26T05:53:46;98904.47;;;6.17;100.00
22743;BME280;11538;48.884;8.696;2023-04-26T05:56:12;98897.47;;;6.21;100.00
22743;BME280;11538;48.884;8.696;2023-04-26T05:58:39;98898.81;;;6.34;100.00
22743;BME280;11538;48.884;8.696;2023-04-26T06:01:10;98905.03;;;6.34;100.00
22743;BME280;11538;48.884;8.696;2023-04-26T06:03:37;98906.66;;;6.30;100.00
22743;BME280;11538;48.884;8.696;2023-04-26T06:06:05;98909.34;;;6.35;100.00
22743;BME280;11538;48.884;8.696;2023-04-26T06:08:34;98907.97;;;6.38;100.00
22743;BME280;11538;48.884;8.696;2023-04-26T06:11:01;98905.03;;;6.39;100.00
22743;BME280;11538;48.884;8.696;2023-04-26T06:13:28;98913.91;;;6.45;100.00
22743;BME280;11538;48.884;8.696;2023-04-26T06:15:57;98909.59;;;6.54;100.00
22743;BME280;11538;48.884;8.696;2023-04-26T06:18:26;98913.38;;;6.53;100.00
22743;BME280;11538;48.884;8.696;2023-04-26T06:20:53;98917.16;;;6.57;100.00
22743;BME280;11538;48.884;8.696;2023-04-26T06:23:20;98915.56;;;6.67;100.00
22743;BME280;11538;48.884;8.696;2023-04-26T06:25:47;98927.66;;;6.75;100.00
22743;BME280;11538;48.884;8.696;2023-04-26T06:28:14;98920.66;;;6.79;100.00
22743;BME280;11538;48.884;8.696;2023-04-26T06:30:42;98922.25;;;6.85;100.00
22743;BME280;11538;48.884;8.696;2023-04-26T06:33:09;98922.25;;;6.90;100.00
22743;BME280;11538;48.884;8.696;2023-04-26T06:35:40;98918.22;;;6.98;100.00
22743;BME280;11538;48.884;8.696;2023-04-26T06:38:07;98920.06;;;7.02;100.00
22743;BME280;11538;48.884;8.696;2023-04-26T06:40:35;98911.97;;;7.08;100.00
22743;BME280;11538;48.884;8.696;2023-04-26T06:43:04;98916.56;;;7.07;98.94
22743;BME280;11538;48.884;8.696;2023-04-26T06:45:34;98918.19;;;7.08;97.36
22743;BME280;11538;48.884;8.696;2023-04-26T06:48:01;98914.66;;;7.13;97.72
22743;BME280;11538;48.884;8.696;2023-04-26T06:50:30;98913.84;;;7.17;99.10
22743;BME280;11538;48.884;8.696;2023-04-26T06:53:00;98909.53;;;7.22;100.00
22743;BME280;11538;48.884;8.696;2023-04-26T06:55:27;98906.00;;;7.31;100.00
22743;BME280;11538;48.884;8.696;2023-04-26T06:57:55;98906.75;;;7.42;98.80
22743;BME280;11538;48.884;8.696;2023-04-26T07:00:22;98908.34;;;7.54;97.34
22743;BME280;11538;48.884;8.696;2023-04-26T07:02:50;98908.31;;;7.59;95.59
22743;BME280;11538;48.884;8.696;2023-04-26T07:05:18;98903.19;;;7.63;96.16
22743;BME280;11538;48.884;8.696;2023-04-26T07:07:46;98900.97;;;7.70;96.25
22743;BME280;11538;48.884;8.696;2023-04-26T07:10:13;98906.56;;;7.84;96.82
22743;BME280;11538;48.884;8.696;2023-04-26T07:12:40;98907.06;;;7.96;94.82
22743;BME280;11538;48.884;8.696;2023-04-26T07:15:08;98900.81;;;8.01;94.22
22743;BME280;11538;48.884;8.696;2023-04-26T07:17:35;98893.75;;;8.05;91.57
22743;BME280;11538;48.884;8.696;2023-04-26T07:20:02;98897.81;;;8.08;91.20
22743;BME280;11538;48.884;8.696;2023-04-26T07:22:29;98898.34;;;8.10;90.15
22743;BME280;11538;48.884;8.696;2023-04-26T07:24:56;98888.00;;;8.17;89.18
22743;BME280;11538;48.884;8.696;2023-04-26T07:27:23;98892.78;;;8.30;89.31
22743;BME280;11538;48.884;8.696;2023-04-26T07:29:53;98891.88;;;8.40;86.28
22743;BME280;11538;48.884;8.696;2023-04-26T07:32:21;98888.28;;;8.55;82.11
22743;BME280;11538;48.884;8.696;2023-04-26T07:34:48;98891.38;;;8.73;77.94
22743;BME280;11538;48.884;8.696;2023-04-26T07:37:15;98880.66;;;8.92;78.24
22743;BME280;11538;48.884;8.696;2023-04-26T07:39:42;98882.78;;;9.19;80.72
22743;BME280;11538;48.884;8.696;2023-04-26T07:42:09;98888.38;;;9.28;78.71
22743;BME280;11538;48.884;8.696;2023-04-26T07:44:37;98883.09;;;9.42;80.21
22743;BME280;11538;48.884;8.696;2023-04-26T07:47:04;98888.59;;;9.56;76.83
22743;BME280;11538;48.884;8.696;2023-04-26T07:49:31;98892.81;;;9.87;75.00
22743;BME280;11538;48.884;8.696;2023-04-26T07:51:58;98886.66;;;10.00;72.04
22743;BME280;11538;48.884;8.696;2023-04-26T07:54:31;98890.53;;;10.13;69.82
22743;BME280;11538;48.884;8.696;2023-04-26T07:56:58;98901.06;;;10.15;68.52
22743;BME280;11538;48.884;8.696;2023-04-26T07:59:25;98903.03;;;10.28;68.83
22743;BME280;11538;48.884;8.696;2023-04-26T08:01:52;98898.34;;;10.53;70.10
22743;BME280;11538;48.884;8.696;2023-04-26T08:04:31;98903.63;;;10.77;68.34
22743;BME280;11538;48.884;8.696;2023-04-26T08:07:00;98903.97;;;10.90;68.52
22743;BME280;11538;48.884;8.696;2023-04-26T08:09:28;98914.84;;;11.04;65.71
22743;BME280;11538;48.884;8.696;2023-04-26T08:11:57;98902.69;;;11.15;66.04
22743;BME280;11538;48.884;8.696;2023-04-26T08:14:24;98897.66;;;10.94;65.56
22743;BME280;11538;48.884;8.696;2023-04-26T08:16:51;98898.97;;;10.64;67.61
22743;BME280;11538;48.884;8.696;2023-04-26T08:19:18;98905.88;;;10.56;67.65
22743;BME280;11538;48.884;8.696;2023-04-26T08:21:44;98908.38;;;10.72;68.22
22743;BME280;11538;48.884;8.696;2023-04-26T08:24:11;98903.88;;;10.95;68.93
22743;BME280;11538;48.884;8.696;2023-04-26T08:26:38;98895.84;;;11.04;67.55
22743;BME280;11538;48.884;8.696;2023-04-26T08:29:05;98905.81;;;11.08;67.17
22743;BME280;11538;48.884;8.696;2023-04-26T08:31:33;98905.81;;;11.08;65.62
22743;BME280;11538;48.884;8.696;2023-04-26T08:34:01;98906.91;;;10.93;66.46
22743;BME280;11538;48.884;8.696;2023-04-26T08:36:27;98906.91;;;10.93;66.45
22743;BME280;11538;48.884;8.696;2023-04-26T08:38:54;98913.53;;;10.87;65.38
22743;BME280;11538;48.884;8.696;2023-04-26T08:41:24;98902.94;;;10.86;64.09
22743;BME280;11538;48.884;8.696;2023-04-26T08:43:53;98902.13;;;10.71;63.95
22743;BME280;11538;48.884;8.696;2023-04-26T08:46:23;98913.06;;;10.66;64.41
22743;BME280;11538;48.884;8.696;2023-04-26T08:49:07;98908.47;;;10.80;64.54
22743;BME280;11538;48.884;8.696;2023-04-26T08:51:40;98907.94;;;11.39;62.50
22743;BME280;11538;48.884;8.696;2023-04-26T08:54:10;98901.44;;;11.77;61.01
22743;BME280;11538;48.884;8.696;2023-04-26T08:56:40;98899.06;;;11.62;58.11
22743;BME280;11538;48.884;8.696;2023-04-26T08:59:08;98900.66;;;11.63;60.28
22743;BME280;11538;48.884;8.696;2023-04-26T09:01:42;98905.50;;;11.80;61.24
22743;BME280;11538;48.884;8.696;2023-04-26T09:04:11;98897.63;;;11.78;61.70
22743;BME280;11538;48.884;8.696;2023-04-26T09:06:39;98898.97;;;11.67;62.45
22743;BME280;11538;48.884;8.696;2023-04-26T09:09:09;98897.28;;;11.43;60.99
22743;BME280;11538;48.884;8.696;2023-04-26T09:11:58;98890.00;;;11.10;59.04
22743;BME280;11538;48.884;8.696;2023-04-26T09:14:26;98887.69;;;10.90;59.82
22743;BME280;11538;48.884;8.696;2023-04-26T09:16:54;98897.84;;;10.84;59.52
22743;BME280;11538;48.884;8.696;2023-04-26T09:19:38;98888.59;;;10.85;59.80
22743;BME280;11538;48.884;8.696;2023-04-26T09:22:05;98892.41;;;10.84;59.42
22743;BME280;11538;48.884;8.696;2023-04-26T09:24:46;98893.50;;;10.83;59.14
22743;BME280;11538;48.884;8.696;2023-04-26T09:27:18;98893.69;;;10.73;57.89
22743;BME280;11538;48.884;8.696;2023-04-26T09:30:18;98889.78;;;10.79;58.72
22743;BME280;11538;48.884;8.696;2023-04-26T09:32:59;98886.09;;;11.03;58.66
22743;BME280;11538;48.884;8.696;2023-04-26T09:38:11;98876.34;;;11.30;57.61
22743;BME280;11538;48.884;8.696;2023-04-26T09:40:48;98878.19;;;11.34;57.44
22743;BME280;11538;48.884;8.696;2023-04-26T09:43:20;98883.78;;;11.38;56.95
22743;BME280;11538;48.884;8.696;2023-04-26T09:45:57;98865.88;;;11.51;56.67
22743;BME280;11538;48.884;8.696;2023-04-26T09:48:27;98872.75;;;11.99;55.30
22743;BME280;11538;48.884;8.696;2023-04-26T09:51:17;98879.47;;;12.16;52.59
22743;BME280;11538;48.884;8.696;2023-04-26T09:53:48;98884.03;;;12.06;55.48
22743;BME280;11538;48.884;8.696;2023-04-26T09:56:18;98875.47;;;11.99;53.65
22743;BME280;11538;48.884;8.696;2023-04-26T09:58:56;98875.19;;;12.69;53.04
22743;BME280;11538;48.884;8.696;2023-04-26T10:01:28;98871.72;;;13.18;50.30
22743;BME280;11538;48.884;8.696;2023-04-26T10:04:00;98872.06;;;13.83;49.26
22743;BME280;11538;48.884;8.696;2023-04-26T10:06:28;98868.97;;;13.58;46.87
22743;BME280;11538;48.884;8.696;2023-04-26T10:08:55;98874.34;;;13.40;46.97
22743;BME280;11538;48.884;8.696;2023-04-26T10:11:25;98878.50;;;12.97;47.35
22743;BME280;11538;48.884;8.696;2023-04-26T10:13:54;98868.53;;;12.84;49.31
22743;BME280;11538;48.884;8.696;2023-04-26T10:16:21;98864.78;;;12.71;48.69
22743;BME280;11538;48.884;8.696;2023-04-26T10:18:49;98862.16;;;12.89;50.68
22743;BME280;11538;48.884;8.696;2023-04-26T10:21:38;98863.41;;;12.82;49.08
22743;BME280;11538;48.884;8.696;2023-04-26T10:24:06;98860.63;;;12.73;48.70
22743;BME280;11538;48.884;8.696;2023-04-26T10:26:50;98862.78;;;12.85;49.41
22743;BME280;11538;48.884;8.696;2023-04-26T10:29:20;98851.34;;;13.15;50.70
22743;BME280;11538;48.884;8.696;2023-04-26T10:34:36;98846.78;;;13.33;51.21
22743;BME280;11538;48.884;8.696;2023-04-26T10:37:12;98846.91;;;13.28;47.94
22743;BME280;11538;48.884;8.696;2023-04-26T10:39:44;98847.06;;;12.82;46.53
22743;BME280;11538;48.884;8.696;2023-04-26T10:42:25;98844.47;;;12.46;47.86
22743;BME280;11538;48.884;8.696;2023-04-26T10:45:24;98850.13;;;12.58;49.83
22743;BME280;11538;48.884;8.696;2023-04-26T10:48:22;98860.28;;;12.98;49.41
22743;BME280;11538;48.884;8.696;2023-04-26T10:53:30;98843.47;;;13.54;47.12
22743;BME280;11538;48.884;8.696;2023-04-26T10:55:58;98842.72;;;13.71;48.07
22743;BME280;11538;48.884;8.696;2023-04-26T10:58:39;98842.56;;;13.94;48.96
22743;BME280;11538;48.884;8.696;2023-04-26T11:01:17;98842.09;;;13.92;48.55
22743;BME280;11538;48.884;8.696;2023-04-26T11:06:24;98834.19;;;13.72;48.94
22743;BME280;11538;48.884;8.696;2023-04-26T11:08:52;98838.66;;;13.51;49.50
22743;BME280;11538;48.884;8.696;2023-04-26T11:11:25;98827.47;;;13.52;50.57
22743;BME280;11538;48.884;8.696;2023-04-26T11:13:54;98813.81;;;13.43;49.04
22743;BME280;11538;48.884;8.696;2023-04-26T11:16:22;98814.34;;;13.14;48.29
22743;BME280;11538;48.884;8.696;2023-04-26T11:18:54;98810.22;;;13.25;50.46
22743;BME280;11538;48.884;8.696;2023-04-26T11:21:21;98813.03;;;13.52;47.08
22743;BME280;11538;48.884;8.696;2023-04-26T11:23:54;98798.69;;;13.37;47.11
22743;BME280;11538;48.884;8.696;2023-04-26T11:26:22;98795.13;;;13.10;49.11
22743;BME280;11538;48.884;8.696;2023-04-26T11:28:50;98805.09;;;13.24;50.90
22743;BME280;11538;48.884;8.696;2023-04-26T11:31:18;98800.03;;;13.49;49.43
22743;BME280;11538;48.884;8.696;2023-04-26T11:33:45;98787.06;;;13.54;48.69
22743;BME280;11538;48.884;8.696;2023-04-26T11:36:16;98790.56;;;13.55;48.34
22743;BME280;11538;48.884;8.696;2023-04-26T11:38:43;98782.09;;;13.56;48.19
22743;BME280;11538;48.884;8.696;2023-04-26T11:41:10;98782.41;;;13.64;47.96
22743;BME280;11538;48.884;8.696;2023-04-26T11:43:38;98775.84;;;13.73;46.53
22743;BME280;11538;48.884;8.696;2023-04-26T11:46:07;98773.25;;;13.86;46.99
22743;BME280;11538;48.884;8.696;2023-04-26T11:48:36;98775.69;;;13.87;47.92
22743;BME280;11538;48.884;8.696;2023-04-26T11:51:05;98781.44;;;13.95;47.36
22743;BME280;11538;48.884;8.696;2023-04-26T11:53:39;98767.81;;;13.68;47.56
22743;BME280;11538;48.884;8.696;2023-04-26T11:56:16;98772.31;;;13.55;47.50
22743;BME280;11538;48.884;8.696;2023-04-26T11:58:49;98768.00;;;13.54;47.60
22743;BME280;11538;48.884;8.696;2023-04-26T12:01:26;98767.66;;;13.47;48.15
22743;BME280;11538;48.884;8.696;2023-04-26T12:04:08;98773.59;;;13.49;47.89
22743;BME280;11538;48.884;8.696;2023-04-26T12:06:44;98780.66;;;13.94;48.69
22743;BME280;11538;48.884;8.696;2023-04-26T12:09:12;98779.56;;;14.52;46.79
22743;BME280;11538;48.884;8.696;2023-04-26T12:11:39;98774.09;;;14.60;46.31
22743;BME280;11538;48.884;8.696;2023-04-26T12:14:06;98770.59;;;14.42;45.88
22743;BME280;11538;48.884;8.696;2023-04-26T12:16:36;98778.88;;;14.16;46.20
22743;BME280;11538;48.884;8.696;2023-04-26T12:19:04;98769.59;;;13.99;45.32
22743;BME280;11538;48.884;8.696;2023-04-26T12:21:45;98775.03;;;13.99;45.64
22743;BME280;11538;48.884;8.696;2023-04-26T12:24:28;98778.69;;;14.21;44.36
22743;BME280;11538;48.884;8.696;2023-04-26T12:27:05;98772.25;;;15.12;43.85
22743;BME280;11538;48.884;8.696;2023-04-26T12:29:34;98766.50;;;15.56;42.59
22743;BME280;11538;48.884;8.696;2023-04-26T12:32:02;98765.91;;;15.72;41.74
22743;BME280;11538;48.884;8.696;2023-04-26T12:34:30;98751.25;;;15.98;40.82
22743;BME280;11538;48.884;8.696;2023-04-26T12:36:57;98755.56;;;16.45;40.46
22743;BME280;11538;48.884;8.696;2023-04-26T12:39:24;98749.53;;;16.64;38.27
22743;BME280;11538;48.884;8.696;2023-04-26T12:41:51;98755.47;;;16.78;39.42
22743;BME280;11538;48.884;8.696;2023-04-26T12:44:18;98745.44;;;16.83;39.11
22743;BME280;11538;48.884;8.696;2023-04-26T12:46:48;98759.25;;;16.74;38.54
22743;BME280;11538;48.884;8.696;2023-04-26T12:49:15;98747.75;;;15.88;40.36
22743;BME280;11538;48.884;8.696;2023-04-26T12:51:42;98743.91;;;15.47;41.45
22743;BME280;11538;48.884;8.696;2023-04-26T12:54:12;98750.16;;;15.26;41.59
22743;BME280;11538;48.884;8.696;2023-04-26T12:56:39;98740.72;;;15.66;42.06
22743;BME280;11538;48.884;8.696;2023-04-26T12:59:10;98744.31;;;15.58;42.59
22743;BME280;11538;48.884;8.696;2023-04-26T13:01:37;98738.06;;;15.36;43.78
22743;BME280;11538;48.884;8.696;2023-04-26T13:04:04;98743.97;;;15.17;43.25
22743;BME280;11538;48.884;8.696;2023-04-26T13:06:32;98749.53;;;14.99;43.41
22743;BME280;11538;48.884;8.696;2023-04-26T13:09:00;98751.78;;;14.97;43.79
22743;BME280;11538;48.884;8.696;2023-04-26T13:11:27;98739.97;;;14.84;42.35
22743;BME280;11538;48.884;8.696;2023-04-26T13:13:55;98751.59;;;14.63;42.41
22743;BME280;11538;48.884;8.696;2023-04-26T13:16:22;98757.88;;;14.64;42.91
22743;BME280;11538;48.884;8.696;2023-04-26T13:18:49;98750.84;;;14.93;42.37
22743;BME280;11538;48.884;8.696;2023-04-26T13:21:16;98749.75;;;16.46;39.97